Baltia — 9HMG9 — position and weather

sailwx.info

Track history (hours):
 
Tides and Currents Weather Stations Pressure Air Temp Water Temp Dewpoint Dewpoint Depression Visibility Wind Speed Wind Dir Waves Ship Positions

Baltia

Last reported at 2016-Aug-22 09:21 UTC. Time now 2016-Aug-29 13:04 UTC.
Position N 34°26' W 124°34'.

Length 224 m; draft 13.8 m.

Type: Cargo ship. MMSI: 249174000.

Date/timePositionNaut miles runAvg speedWind from/ knotsBaromVisibWave heightAir tempDewpointWater temp
2016-Aug-22 09:21N 34°26' W 124°34'8610.6
2016-Aug-22 01:17N 34°26' W 122°50'810.6
2016-Aug-22 00:33N 34°26' W 122°41'1110.7
2016-Aug-21 23:30N 34°26' W 122°27'3110.7
2016-Aug-21 20:33N 34°26' W 121°49'2310.6
2016-Aug-21 18:23N 34°26' W 121°21'4210.5
2016-Aug-21 14:20N 34°22' W 120°30'810.6
2016-Aug-21 13:33N 34°20' W 120°20'1010.5
2016-Aug-21 12:33N 34°17' W 120°08'1110.6
2016-Aug-21 11:33N 34°14' W 119°56'10 9.9
2016-Aug-21 10:33N 34°11' W 119°44'1010.4
2016-Aug-21 09:33N 34°08' W 119°32'1110.6
2016-Aug-21 08:33N 34°05' W 119°20'1110.6
2016-Aug-21 07:33N 34°01' W 119°08'1010.2
2016-Aug-21 06:33N 33°56' W 118°58'10 9.9
2016-Aug-21 05:33N 33°51' W 118°47'1010.0
2016-Aug-21 04:33N 33°46' W 118°37'1010.5
2016-Aug-21 03:33N 33°41' W 118°26'1010.3
2016-Aug-21 02:33N 33°38' W 118°14'6 6.1
2016-Aug-21 01:34N 33°44' W 118°12'1 0.7
2016-Aug-21 00:27N 33°45' W 118°12'0 0.0
2016-Aug-20 23:33N 33°45' W 118°12'0 0.0
2016-Aug-20 22:24N 33°45' W 118°12'0 0.0
2016-Aug-20 19:30N 33°45' W 118°12'0 0.0
2016-Aug-20 17:15N 33°45' W 118°12'0 0.0
2016-Aug-20 16:30N 33°45' W 118°12'0 0.0
2016-Aug-20 15:33N 33°45' W 118°12'0 0.0
2016-Aug-20 14:30N 33°45' W 118°12'0 0.0
2016-Aug-20 13:24N 33°45' W 118°12'0 0.0
2016-Aug-20 11:30N 33°45' W 118°12'0 0.0
2016-Aug-20 06:27N 33°45' W 118°12'0 0.0
2016-Aug-20 03:21N 33°45' W 118°12'0 0.0
2016-Aug-20 01:33N 33°45' W 118°12'0 0.0
2016-Aug-20 00:33N 33°45' W 118°12'0 0.0
2016-Aug-19 23:33N 33°45' W 118°12'0 0.0
2016-Aug-19 22:33N 33°45' W 118°12'0 0.0
2016-Aug-19 21:33N 33°45' W 118°12'0 0.0
2016-Aug-19 20:33N 33°45' W 118°12'0 0.0
2016-Aug-19 18:30N 33°45' W 118°12'0 0.0
2016-Aug-19 17:27N 33°45' W 118°12'0 0.0
2016-Aug-19 15:33N 33°45' W 118°12'0 0.0
2016-Aug-19 13:27N 33°45' W 118°12'2 2.1
2016-Aug-19 12:33N 33°43' W 118°11'2 2.3
2016-Aug-19 11:33N 33°42' W 118°09'0 0.0
2016-Aug-19 10:33N 33°42' W 118°09'0 0.0
2016-Aug-19 09:33N 33°42' W 118°09'0 0.0
2016-Aug-19 08:33N 33°42' W 118°09'0 0.0
2016-Aug-19 07:33N 33°42' W 118°09'0 0.1
2016-Aug-19 06:33N 33°42' W 118°09'0 0.0
2016-Aug-19 05:33N 33°42' W 118°09'0 0.1
2016-Aug-19 04:33N 33°42' W 118°09'0 0.0
2016-Aug-19 03:33N 33°42' W 118°09'0 0.1
2016-Aug-19 02:33N 33°42' W 118°09'0 0.0
2016-Aug-19 01:30N 33°42' W 118°09'0 0.0
2016-Aug-19 00:27N 33°42' W 118°09'0 0.0
2016-Aug-18 23:30N 33°42' W 118°09'0 0.0
2016-Aug-18 22:33N 33°42' W 118°09'0 0.0
2016-Aug-18 21:33N 33°42' W 118°09'0 0.0
2016-Aug-18 20:33N 33°42' W 118°09'0 0.1
2016-Aug-18 19:33N 33°42' W 118°09'0 0.1
2016-Aug-18 18:30N 33°42' W 118°09'0 0.1
2016-Aug-18 17:33N 33°42' W 118°09'0 0.0
2016-Aug-18 16:33N 33°42' W 118°09'0 0.0
2016-Aug-18 15:33N 33°42' W 118°09'0 0.0
2016-Aug-18 14:30N 33°42' W 118°09'0 0.0
2016-Aug-18 13:33N 33°42' W 118°09'0 0.0
2016-Aug-18 12:33N 33°42' W 118°09'0 0.1
2016-Aug-18 11:33N 33°42' W 118°09'0 0.0
2016-Aug-18 10:33N 33°42' W 118°09'0 0.1
2016-Aug-18 09:33N 33°42' W 118°09'0 0.1
2016-Aug-18 08:30N 33°42' W 118°09'0 0.0
2016-Aug-18 07:27N 33°42' W 118°09'0 0.0
2016-Aug-18 06:30N 33°42' W 118°09'0 0.0
2016-Aug-18 05:27N 33°42' W 118°09'0 0.0
2016-Aug-18 04:33N 33°42' W 118°09'0 0.0
2016-Aug-18 03:33N 33°42' W 118°09'0 0.0
2016-Aug-18 02:30N 33°42' W 118°09'0 0.1
2016-Aug-18 01:33N 33°42' W 118°09'0 0.0
2016-Aug-18 00:24N 33°42' W 118°09'0 0.0
2016-Aug-17 23:33N 33°42' W 118°09'0 0.0
2016-Aug-17 22:33N 33°42' W 118°09'0 0.0
2016-Aug-17 21:33N 33°42' W 118°09'0 0.0
2016-Aug-17 20:30N 33°42' W 118°09'0 0.0
2016-Aug-17 19:33N 33°42' W 118°09'0 0.1
2016-Aug-17 18:33N 33°42' W 118°09'0 0.1
2016-Aug-17 17:33N 33°42' W 118°09'0 0.1
2016-Aug-17 16:33N 33°42' W 118°09'0 0.1
2016-Aug-17 15:33N 33°42' W 118°09'0 0.0
2016-Aug-17 14:33N 33°42' W 118°09'0 0.0
2016-Aug-17 13:33N 33°42' W 118°09'0 0.1
2016-Aug-17 12:33N 33°42' W 118°09'0 0.0
2016-Aug-17 11:33N 33°42' W 118°09'0 0.1
2016-Aug-17 10:33N 33°42' W 118°09'0 0.0
2016-Aug-17 09:33N 33°42' W 118°09'0 0.1
2016-Aug-17 08:33N 33°42' W 118°09'0 0.0
2016-Aug-17 07:33N 33°42' W 118°09'0 0.1
2016-Aug-17 06:33N 33°42' W 118°09'0 0.0
2016-Aug-17 05:33N 33°42' W 118°09'0 0.0
2016-Aug-17 04:30N 33°42' W 118°09'0 0.1
2016-Aug-17 03:30N 33°42' W 118°09'0 0.1
2016-Aug-17 02:30N 33°42' W 118°09'0 0.0
2016-Aug-17 01:33N 33°42' W 118°09'0 0.0
2016-Aug-17 00:33N 33°42' W 118°09'0 0.1
2016-Aug-16 23:33N 33°42' W 118°09'0 0.0
2016-Aug-16 22:33N 33°42' W 118°09'0 0.0
2016-Aug-16 21:33N 33°42' W 118°09'0 0.1
2016-Aug-16 20:33N 33°42' W 118°09'0 0.0
2016-Aug-16 19:33N 33°42' W 118°09'0 0.0
2016-Aug-16 18:33N 33°42' W 118°09'0 0.1
2016-Aug-16 17:33N 33°42' W 118°09'0 0.1
2016-Aug-16 16:33N 33°42' W 118°09'0 0.1
2016-Aug-16 15:33N 33°42' W 118°09'0 0.1
2016-Aug-16 14:33N 33°42' W 118°09'0 0.0
2016-Aug-16 13:33N 33°42' W 118°09'0 0.0
2016-Aug-16 12:33N 33°42' W 118°09'0 0.0
2016-Aug-16 11:33N 33°42' W 118°09'0 0.1
2016-Aug-16 10:33N 33°42' W 118°09'0 0.0
2016-Aug-16 09:33N 33°42' W 118°09'0 0.0
2016-Aug-16 08:30N 33°42' W 118°09'0 0.1
2016-Aug-16 07:33N 33°42' W 118°09'0 0.0
2016-Aug-16 04:33N 33°42' W 118°09'0 0.0
2016-Aug-16 03:33N 33°42' W 118°09'0 0.0
2016-Aug-16 02:33N 33°42' W 118°09'0 0.0
2016-Aug-16 01:33N 33°42' W 118°09'0 0.0
2016-Aug-16 00:33N 33°42' W 118°09'0 0.1
2016-Aug-15 23:33N 33°42' W 118°09'0 0.0
2016-Aug-15 22:33N 33°42' W 118°09'0 0.1
2016-Aug-15 21:33N 33°42' W 118°09'0 0.0
2016-Aug-15 20:33N 33°42' W 118°09'0 0.0
2016-Aug-15 19:33N 33°42' W 118°09'0 0.1
2016-Aug-15 18:33N 33°42' W 118°09'0 0.0
2016-Aug-15 17:33N 33°42' W 118°09'0 0.0
2016-Aug-15 16:33N 33°42' W 118°09'0 0.0
2016-Aug-15 15:33N 33°42' W 118°09'0 0.0
2016-Aug-15 14:33N 33°42' W 118°09'0 0.1
2016-Aug-15 13:33N 33°42' W 118°09'0 0.0
2016-Aug-15 12:33N 33°42' W 118°09'0 0.0
2016-Aug-15 11:33N 33°42' W 118°09'0 0.0
2016-Aug-15 10:33N 33°42' W 118°09'0 0.1
2016-Aug-15 09:33N 33°42' W 118°09'0 0.0
2016-Aug-15 08:33N 33°42' W 118°09'0 0.0
2016-Aug-15 07:33N 33°42' W 118°09'0 0.0
2016-Aug-15 06:33N 33°42' W 118°09'0 0.0
2016-Aug-15 04:30N 33°42' W 118°09'0 0.0
2016-Aug-15 03:33N 33°42' W 118°09'0 0.0
2016-Aug-15 02:30N 33°42' W 118°09'0 0.0
2016-Aug-15 01:33N 33°42' W 118°09'0 0.0
2016-Aug-15 00:33N 33°42' W 118°09'0 0.0
2016-Aug-14 23:33N 33°42' W 118°09'0 0.0
2016-Aug-14 22:33N 33°42' W 118°09'0 0.0
2016-Aug-14 21:33N 33°42' W 118°09'0 0.0
2016-Aug-14 20:33N 33°42' W 118°09'0 0.0
2016-Aug-14 19:33N 33°42' W 118°09'0 0.0
2016-Aug-14 18:33N 33°42' W 118°09'0 0.0
2016-Aug-14 17:30N 33°42' W 118°09'0 0.0
2016-Aug-14 16:33N 33°42' W 118°09'0 0.1
2016-Aug-14 15:33N 33°42' W 118°09'0 0.0
2016-Aug-14 14:30N 33°42' W 118°09'0 0.0
2016-Aug-14 13:33N 33°42' W 118°09'0 0.1
2016-Aug-14 12:33N 33°42' W 118°09'0 0.1
2016-Aug-14 11:33N 33°42' W 118°09'0 0.1
2016-Aug-14 10:33N 33°42' W 118°09'0 0.0
2016-Aug-14 09:33N 33°42' W 118°09'0 0.0
2016-Aug-14 08:33N 33°42' W 118°09'0 0.0
2016-Aug-14 07:33N 33°42' W 118°09'0 0.0
2016-Aug-14 06:33N 33°42' W 118°09'0 0.0
2016-Aug-14 04:33N 33°42' W 118°09'0 0.0
2016-Aug-14 03:33N 33°42' W 118°09'0 0.0
2016-Aug-14 02:33N 33°42' W 118°09'0 0.0
2016-Aug-14 01:33N 33°42' W 118°09'0 0.0
2016-Aug-14 00:33N 33°42' W 118°09'0 0.0
2016-Aug-13 23:33N 33°42' W 118°09'0 0.0
2016-Aug-13 22:33N 33°42' W 118°09'0 0.0
2016-Aug-13 21:33N 33°42' W 118°09'0 0.0
2016-Aug-13 20:33N 33°42' W 118°09'0 0.0
2016-Aug-13 19:33N 33°42' W 118°09'0 0.0
2016-Aug-13 18:33N 33°42' W 118°09'0 0.1
2016-Aug-13 17:33N 33°42' W 118°09'0 0.0
2016-Aug-13 16:33N 33°42' W 118°09'0 0.0
2016-Aug-13 15:33N 33°42' W 118°09'0 0.0
2016-Aug-13 14:33N 33°42' W 118°09'0 0.0
2016-Aug-13 13:33N 33°42' W 118°09'0 0.1
2016-Aug-13 12:33N 33°42' W 118°09'0 0.1
2016-Aug-13 11:33N 33°42' W 118°09'0 0.2
2016-Aug-13 10:33N 33°42' W 118°09'4 4.1
2016-Aug-13 09:34N 33°39' W 118°11'9 8.7
2016-Aug-13 08:33N 33°36' W 118°21'1211.8
2016-Aug-13 07:34N 33°42' W 118°34'1111.3
2016-Aug-13 06:33N 33°48' W 118°45'1111.5
2016-Aug-13 05:33N 33°54' W 118°57'1211.9
2016-Aug-13 04:33N 33°59' W 119°10'1211.9
2016-Aug-13 03:33N 34°04' W 119°23'1211.7
2016-Aug-13 02:33N 34°07' W 119°37'1212.0
2016-Aug-13 01:33N 34°10' W 119°51'1211.7
2016-Aug-13 00:32N 34°13' W 120°05'4611.5
2016-Aug-12 20:33N 34°28' W 120°57'1111.4
2016-Aug-12 19:33N 34°37' W 121°05'1211.2
2016-Aug-12 18:30N 34°48' W 121°12'1111.1
2016-Aug-12 17:33N 34°56' W 121°19'1111.4
2016-Aug-12 16:33N 35°06' W 121°27'1111.3
2016-Aug-12 15:34N 35°16' W 121°34'5611.2
2016-Aug-12 10:33N 36°04' W 122°09'1211.8
2016-Aug-12 09:33N 36°14' W 122°16'  
Track history (hours):
 
Tides and Currents Weather Stations Pressure Air Temp Water Temp Dewpoint Dewpoint Depression Visibility Wind Speed Wind Dir Waves Ship Positions

Baltia

Last reported at 2016-Aug-22 09:21 UTC. Time now 2016-Aug-29 13:04 UTC.
Position N 34°26' W 124°34'.

Length 224 m; draft 13.8 m.

Type: Cargo ship. MMSI: 249174000.

Date/timePositionNaut miles runAvg speedWind from/ knotsBaromVisibWave heightAir tempDewpointWater temp
2016-Aug-22 09:21N 34°26' W 124°34'8610.6
2016-Aug-22 01:17N 34°26' W 122°50'810.6
2016-Aug-22 00:33N 34°26' W 122°41'1110.7
2016-Aug-21 23:30N 34°26' W 122°27'3110.7
2016-Aug-21 20:33N 34°26' W 121°49'2310.6
2016-Aug-21 18:23N 34°26' W 121°21'4210.5
2016-Aug-21 14:20N 34°22' W 120°30'810.6
2016-Aug-21 13:33N 34°20' W 120°20'1010.5
2016-Aug-21 12:33N 34°17' W 120°08'1110.6
2016-Aug-21 11:33N 34°14' W 119°56'10 9.9
2016-Aug-21 10:33N 34°11' W 119°44'1010.4
2016-Aug-21 09:33N 34°08' W 119°32'1110.6
2016-Aug-21 08:33N 34°05' W 119°20'1110.6
2016-Aug-21 07:33N 34°01' W 119°08'1010.2
2016-Aug-21 06:33N 33°56' W 118°58'10 9.9
2016-Aug-21 05:33N 33°51' W 118°47'1010.0
2016-Aug-21 04:33N 33°46' W 118°37'1010.5
2016-Aug-21 03:33N 33°41' W 118°26'1010.3
2016-Aug-21 02:33N 33°38' W 118°14'6 6.1
2016-Aug-21 01:34N 33°44' W 118°12'1 0.7
2016-Aug-21 00:27N 33°45' W 118°12'0 0.0
2016-Aug-20 23:33N 33°45' W 118°12'0 0.0
2016-Aug-20 22:24N 33°45' W 118°12'0 0.0
2016-Aug-20 19:30N 33°45' W 118°12'0 0.0
2016-Aug-20 17:15N 33°45' W 118°12'0 0.0
2016-Aug-20 16:30N 33°45' W 118°12'0 0.0
2016-Aug-20 15:33N 33°45' W 118°12'0 0.0
2016-Aug-20 14:30N 33°45' W 118°12'0 0.0
2016-Aug-20 13:24N 33°45' W 118°12'0 0.0
2016-Aug-20 11:30N 33°45' W 118°12'0 0.0
2016-Aug-20 06:27N 33°45' W 118°12'0 0.0
2016-Aug-20 03:21N 33°45' W 118°12'0 0.0
2016-Aug-20 01:33N 33°45' W 118°12'0 0.0
2016-Aug-20 00:33N 33°45' W 118°12'0 0.0
2016-Aug-19 23:33N 33°45' W 118°12'0 0.0
2016-Aug-19 22:33N 33°45' W 118°12'0 0.0
2016-Aug-19 21:33N 33°45' W 118°12'0 0.0
2016-Aug-19 20:33N 33°45' W 118°12'0 0.0
2016-Aug-19 18:30N 33°45' W 118°12'0 0.0
2016-Aug-19 17:27N 33°45' W 118°12'0 0.0
2016-Aug-19 15:33N 33°45' W 118°12'0 0.0
2016-Aug-19 13:27N 33°45' W 118°12'2 2.1
2016-Aug-19 12:33N 33°43' W 118°11'2 2.3
2016-Aug-19 11:33N 33°42' W 118°09'0 0.0
2016-Aug-19 10:33N 33°42' W 118°09'0 0.0
2016-Aug-19 09:33N 33°42' W 118°09'0 0.0
2016-Aug-19 08:33N 33°42' W 118°09'0 0.0
2016-Aug-19 07:33N 33°42' W 118°09'0 0.1
2016-Aug-19 06:33N 33°42' W 118°09'0 0.0
2016-Aug-19 05:33N 33°42' W 118°09'0 0.1
2016-Aug-19 04:33N 33°42' W 118°09'0 0.0
2016-Aug-19 03:33N 33°42' W 118°09'0 0.1
2016-Aug-19 02:33N 33°42' W 118°09'0 0.0
2016-Aug-19 01:30N 33°42' W 118°09'0 0.0
2016-Aug-19 00:27N 33°42' W 118°09'0 0.0
2016-Aug-18 23:30N 33°42' W 118°09'0 0.0
2016-Aug-18 22:33N 33°42' W 118°09'0 0.0
2016-Aug-18 21:33N 33°42' W 118°09'0 0.0
2016-Aug-18 20:33N 33°42' W 118°09'0 0.1
2016-Aug-18 19:33N 33°42' W 118°09'0 0.1
2016-Aug-18 18:30N 33°42' W 118°09'0 0.1
2016-Aug-18 17:33N 33°42' W 118°09'0 0.0
2016-Aug-18 16:33N 33°42' W 118°09'0 0.0
2016-Aug-18 15:33N 33°42' W 118°09'0 0.0
2016-Aug-18 14:30N 33°42' W 118°09'0 0.0
2016-Aug-18 13:33N 33°42' W 118°09'0 0.0
2016-Aug-18 12:33N 33°42' W 118°09'0 0.1
2016-Aug-18 11:33N 33°42' W 118°09'0 0.0
2016-Aug-18 10:33N 33°42' W 118°09'0 0.1
2016-Aug-18 09:33N 33°42' W 118°09'0 0.1
2016-Aug-18 08:30N 33°42' W 118°09'0 0.0
2016-Aug-18 07:27N 33°42' W 118°09'0 0.0
2016-Aug-18 06:30N 33°42' W 118°09'0 0.0
2016-Aug-18 05:27N 33°42' W 118°09'0 0.0
2016-Aug-18 04:33N 33°42' W 118°09'0 0.0
2016-Aug-18 03:33N 33°42' W 118°09'0 0.0
2016-Aug-18 02:30N 33°42' W 118°09'0 0.1
2016-Aug-18 01:33N 33°42' W 118°09'0 0.0
2016-Aug-18 00:24N 33°42' W 118°09'0 0.0
2016-Aug-17 23:33N 33°42' W 118°09'0 0.0
2016-Aug-17 22:33N 33°42' W 118°09'0 0.0
2016-Aug-17 21:33N 33°42' W 118°09'0 0.0
2016-Aug-17 20:30N 33°42' W 118°09'0 0.0
2016-Aug-17 19:33N 33°42' W 118°09'0 0.1
2016-Aug-17 18:33N 33°42' W 118°09'0 0.1
2016-Aug-17 17:33N 33°42' W 118°09'0 0.1
2016-Aug-17 16:33N 33°42' W 118°09'0 0.1
2016-Aug-17 15:33N 33°42' W 118°09'0 0.0
2016-Aug-17 14:33N 33°42' W 118°09'0 0.0
2016-Aug-17 13:33N 33°42' W 118°09'0 0.1
2016-Aug-17 12:33N 33°42' W 118°09'0 0.0
2016-Aug-17 11:33N 33°42' W 118°09'0 0.1
2016-Aug-17 10:33N 33°42' W 118°09'0 0.0
2016-Aug-17 09:33N 33°42' W 118°09'0 0.1
2016-Aug-17 08:33N 33°42' W 118°09'0 0.0
2016-Aug-17 07:33N 33°42' W 118°09'0 0.1
2016-Aug-17 06:33N 33°42' W 118°09'0 0.0
2016-Aug-17 05:33N 33°42' W 118°09'0 0.0
2016-Aug-17 04:30N 33°42' W 118°09'0 0.1
2016-Aug-17 03:30N 33°42' W 118°09'0 0.1
2016-Aug-17 02:30N 33°42' W 118°09'0 0.0
2016-Aug-17 01:33N 33°42' W 118°09'0 0.0
2016-Aug-17 00:33N 33°42' W 118°09'0 0.1
2016-Aug-16 23:33N 33°42' W 118°09'0 0.0
2016-Aug-16 22:33N 33°42' W 118°09'0 0.0
2016-Aug-16 21:33N 33°42' W 118°09'0 0.1
2016-Aug-16 20:33N 33°42' W 118°09'0 0.0
2016-Aug-16 19:33N 33°42' W 118°09'0 0.0
2016-Aug-16 18:33N 33°42' W 118°09'0 0.1
2016-Aug-16 17:33N 33°42' W 118°09'0 0.1
2016-Aug-16 16:33N 33°42' W 118°09'0 0.1
2016-Aug-16 15:33N 33°42' W 118°09'0 0.1
2016-Aug-16 14:33N 33°42' W 118°09'0 0.0
2016-Aug-16 13:33N 33°42' W 118°09'0 0.0
2016-Aug-16 12:33N 33°42' W 118°09'0 0.0
2016-Aug-16 11:33N 33°42' W 118°09'0 0.1
2016-Aug-16 10:33N 33°42' W 118°09'0 0.0
2016-Aug-16 09:33N 33°42' W 118°09'0 0.0
2016-Aug-16 08:30N 33°42' W 118°09'0 0.1
2016-Aug-16 07:33N 33°42' W 118°09'0 0.0
2016-Aug-16 04:33N 33°42' W 118°09'0 0.0
2016-Aug-16 03:33N 33°42' W 118°09'0 0.0
2016-Aug-16 02:33N 33°42' W 118°09'0 0.0
2016-Aug-16 01:33N 33°42' W 118°09'0 0.0
2016-Aug-16 00:33N 33°42' W 118°09'0 0.1
2016-Aug-15 23:33N 33°42' W 118°09'0 0.0
2016-Aug-15 22:33N 33°42' W 118°09'0 0.1
2016-Aug-15 21:33N 33°42' W 118°09'0 0.0
2016-Aug-15 20:33N 33°42' W 118°09'0 0.0
2016-Aug-15 19:33N 33°42' W 118°09'0 0.1
2016-Aug-15 18:33N 33°42' W 118°09'0 0.0
2016-Aug-15 17:33N 33°42' W 118°09'0 0.0
2016-Aug-15 16:33N 33°42' W 118°09'0 0.0
2016-Aug-15 15:33N 33°42' W 118°09'0 0.0
2016-Aug-15 14:33N 33°42' W 118°09'0 0.1
2016-Aug-15 13:33N 33°42' W 118°09'0 0.0
2016-Aug-15 12:33N 33°42' W 118°09'0 0.0
2016-Aug-15 11:33N 33°42' W 118°09'0 0.0
2016-Aug-15 10:33N 33°42' W 118°09'0 0.1
2016-Aug-15 09:33N 33°42' W 118°09'0 0.0
2016-Aug-15 08:33N 33°42' W 118°09'0 0.0
2016-Aug-15 07:33N 33°42' W 118°09'0 0.0
2016-Aug-15 06:33N 33°42' W 118°09'0 0.0
2016-Aug-15 04:30N 33°42' W 118°09'0 0.0
2016-Aug-15 03:33N 33°42' W 118°09'0 0.0
2016-Aug-15 02:30N 33°42' W 118°09'0 0.0
2016-Aug-15 01:33N 33°42' W 118°09'0 0.0
2016-Aug-15 00:33N 33°42' W 118°09'0 0.0
2016-Aug-14 23:33N 33°42' W 118°09'0 0.0
2016-Aug-14 22:33N 33°42' W 118°09'0 0.0
2016-Aug-14 21:33N 33°42' W 118°09'0 0.0
2016-Aug-14 20:33N 33°42' W 118°09'0 0.0
2016-Aug-14 19:33N 33°42' W 118°09'0 0.0
2016-Aug-14 18:33N 33°42' W 118°09'0 0.0
2016-Aug-14 17:30N 33°42' W 118°09'0 0.0
2016-Aug-14 16:33N 33°42' W 118°09'0 0.1
2016-Aug-14 15:33N 33°42' W 118°09'0 0.0
2016-Aug-14 14:30N 33°42' W 118°09'0 0.0
2016-Aug-14 13:33N 33°42' W 118°09'0 0.1
2016-Aug-14 12:33N 33°42' W 118°09'0 0.1
2016-Aug-14 11:33N 33°42' W 118°09'0 0.1
2016-Aug-14 10:33N 33°42' W 118°09'0 0.0
2016-Aug-14 09:33N 33°42' W 118°09'0 0.0
2016-Aug-14 08:33N 33°42' W 118°09'0 0.0
2016-Aug-14 07:33N 33°42' W 118°09'0 0.0
2016-Aug-14 06:33N 33°42' W 118°09'0 0.0
2016-Aug-14 04:33N 33°42' W 118°09'0 0.0
2016-Aug-14 03:33N 33°42' W 118°09'0 0.0
2016-Aug-14 02:33N 33°42' W 118°09'0 0.0
2016-Aug-14 01:33N 33°42' W 118°09'0 0.0
2016-Aug-14 00:33N 33°42' W 118°09'0 0.0
2016-Aug-13 23:33N 33°42' W 118°09'0 0.0
2016-Aug-13 22:33N 33°42' W 118°09'0 0.0
2016-Aug-13 21:33N 33°42' W 118°09'0 0.0
2016-Aug-13 20:33N 33°42' W 118°09'0 0.0
2016-Aug-13 19:33N 33°42' W 118°09'0 0.0
2016-Aug-13 18:33N 33°42' W 118°09'0 0.1
2016-Aug-13 17:33N 33°42' W 118°09'0 0.0
2016-Aug-13 16:33N 33°42' W 118°09'0 0.0
2016-Aug-13 15:33N 33°42' W 118°09'0 0.0
2016-Aug-13 14:33N 33°42' W 118°09'0 0.0
2016-Aug-13 13:33N 33°42' W 118°09'0 0.1
2016-Aug-13 12:33N 33°42' W 118°09'0 0.1
2016-Aug-13 11:33N 33°42' W 118°09'0 0.2
2016-Aug-13 10:33N 33°42' W 118°09'4 4.1
2016-Aug-13 09:34N 33°39' W 118°11'9 8.7
2016-Aug-13 08:33N 33°36' W 118°21'1211.8
2016-Aug-13 07:34N 33°42' W 118°34'1111.3
2016-Aug-13 06:33N 33°48' W 118°45'1111.5
2016-Aug-13 05:33N 33°54' W 118°57'1211.9
2016-Aug-13 04:33N 33°59' W 119°10'1211.9
2016-Aug-13 03:33N 34°04' W 119°23'1211.7
2016-Aug-13 02:33N 34°07' W 119°37'1212.0
2016-Aug-13 01:33N 34°10' W 119°51'1211.7
2016-Aug-13 00:32N 34°13' W 120°05'4611.5
2016-Aug-12 20:33N 34°28' W 120°57'1111.4
2016-Aug-12 19:33N 34°37' W 121°05'1211.2
2016-Aug-12 18:30N 34°48' W 121°12'1111.1
2016-Aug-12 17:33N 34°56' W 121°19'1111.4
2016-Aug-12 16:33N 35°06' W 121°27'1111.3
2016-Aug-12 15:34N 35°16' W 121°34'5611.2
2016-Aug-12 10:33N 36°04' W 122°09'1211.8
2016-Aug-12 09:33N 36°14' W 122°16'  

Dump ship's entire track history